sensor_id;sensor_type;location;lat;lon;timestamp;pressure;altitude;pressure_sealevel;temperature;humidity
71299;BME280;59083;47.974;21.722;2023-02-11T00:00:54;102518.69;;;-3.19;88.23
71299;BME280;59083;47.974;21.722;2023-02-11T00:03:56;102525.72;;;-3.21;88.34
71299;BME280;59083;47.974;21.722;2023-02-11T00:06:58;102521.53;;;-3.26;88.43
71299;BME280;59083;47.974;21.722;2023-02-11T00:09:59;102508.47;;;-3.25;88.21
71299;BME280;59083;47.974;21.722;2023-02-11T00:13:02;102508.53;;;-3.28;88.31
71299;BME280;59083;47.974;21.722;2023-02-11T00:16:08;102508.47;;;-3.25;88.16
71299;BME280;59083;47.974;21.722;2023-02-11T00:19:10;102519.00;;;-3.29;88.11
71299;BME280;59083;47.974;21.722;2023-02-11T00:22:11;102520.88;;;-3.33;88.42
71299;BME280;59083;47.974;21.722;2023-02-11T00:25:12;102516.41;;;-3.29;88.14
71299;BME280;59083;47.974;21.722;2023-02-11T00:28:13;102509.72;;;-3.38;88.43
71299;BME280;59083;47.974;21.722;2023-02-11T00:31:16;102502.84;;;-3.41;88.47
71299;BME280;59083;47.974;21.722;2023-02-11T00:34:18;102509.81;;;-3.41;88.57
71299;BME280;59083;47.974;21.722;2023-02-11T00:37:19;102509.03;;;-3.43;88.48
71299;BME280;59083;47.974;21.722;2023-02-11T00:40:20;102509.78;;;-3.40;88.44
71299;BME280;59083;47.974;21.722;2023-02-11T00:43:21;102513.34;;;-3.42;88.10
71299;BME280;59083;47.974;21.722;2023-02-11T00:46:24;102517.63;;;-3.41;88.32
71299;BME280;59083;47.974;21.722;2023-02-11T00:49:26;102514.22;;;-3.43;88.35
71299;BME280;59083;47.974;21.722;2023-02-11T00:52:27;102513.53;;;-3.48;88.33
71299;BME280;59083;47.974;21.722;2023-02-11T00:55:28;102504.84;;;-3.49;88.71
71299;BME280;59083;47.974;21.722;2023-02-11T00:58:30;102515.28;;;-3.49;88.58
71299;BME280;59083;47.974;21.722;2023-02-11T01:01:31;102493.75;;;-3.55;88.81
71299;BME280;59083;47.974;21.722;2023-02-11T01:04:32;102491.84;;;-3.50;88.80
71299;BME280;59083;47.974;21.722;2023-02-11T01:07:33;102484.22;;;-3.56;88.70
71299;BME280;59083;47.974;21.722;2023-02-11T01:10:34;102478.06;;;-3.54;88.76
71299;BME280;59083;47.974;21.722;2023-02-11T01:13:36;102474.69;;;-3.57;88.68
71299;BME280;59083;47.974;21.722;2023-02-11T01:16:38;102474.69;;;-3.57;88.50
71299;BME280;59083;47.974;21.722;2023-02-11T01:19:40;102469.47;;;-3.57;88.44
71299;BME280;59083;47.974;21.722;2023-02-11T01:22:42;102460.13;;;-3.64;88.86
71299;BME280;59083;47.974;21.722;2023-02-11T01:25:43;102455.00;;;-3.66;88.99
71299;BME280;59083;47.974;21.722;2023-02-11T01:28:44;102457.75;;;-3.70;89.18
71299;BME280;59083;47.974;21.722;2023-02-11T01:31:45;102456.91;;;-3.72;89.06
71299;BME280;59083;47.974;21.722;2023-02-11T01:34:47;102459.53;;;-3.72;89.00
71299;BME280;59083;47.974;21.722;2023-02-11T01:37:48;102456.87;;;-3.71;88.95
71299;BME280;59083;47.974;21.722;2023-02-11T01:40:52;102454.31;;;-3.72;88.83
71299;BME280;59083;47.974;21.722;2023-02-11T01:43:53;102457.75;;;-3.70;88.80
71299;BME280;59083;47.974;21.722;2023-02-11T01:46:54;102453.63;;;-3.79;88.98
71299;BME280;59083;47.974;21.722;2023-02-11T01:49:58;102449.28;;;-3.79;89.05
71299;BME280;59083;47.974;21.722;2023-02-11T01:53:02;102444.13;;;-3.80;89.15
71299;BME280;59083;47.974;21.722;2023-02-11T01:56:25;102435.44;;;-3.81;89.08
71299;BME280;59083;47.974;21.722;2023-02-11T02:03:01;102438.88;;;-3.79;89.10
71299;BME280;59083;47.974;21.722;2023-02-11T02:06:07;102441.66;;;-3.85;89.01
71299;BME280;59083;47.974;21.722;2023-02-11T02:09:18;102442.66;;;-3.89;89.12
71299;BME280;59083;47.974;21.722;2023-02-11T02:12:20;102442.72;;;-3.92;89.07
71299;BME280;59083;47.974;21.722;2023-02-11T02:15:31;102449.91;;;-4.00;89.32
71299;BME280;59083;47.974;21.722;2023-02-11T02:25:34;102432.03;;;-4.12;89.70
71299;BME280;59083;47.974;21.722;2023-02-11T02:38:52;102410.56;;;-4.20;90.28
71299;BME280;59083;47.974;21.722;2023-02-11T02:41:55;102408.06;;;-4.23;90.29
71299;BME280;59083;47.974;21.722;2023-02-11T02:44:57;102402.84;;;-4.23;90.20
71299;BME280;59083;47.974;21.722;2023-02-11T02:47:58;102408.94;;;-4.24;90.08
71299;BME280;59083;47.974;21.722;2023-02-11T02:51:24;102405.53;;;-4.26;90.30
71299;BME280;59083;47.974;21.722;2023-02-11T02:57:55;102397.72;;;-4.26;90.19
71299;BME280;59083;47.974;21.722;2023-02-11T03:01:27;102402.03;;;-4.25;90.13
71299;BME280;59083;47.974;21.722;2023-02-11T03:08:09;102412.38;;;-4.22;89.74
71299;BME280;59083;47.974;21.722;2023-02-11T03:11:16;102410.72;;;-4.26;89.52
71299;BME280;59083;47.974;21.722;2023-02-11T03:14:19;102410.84;;;-4.29;89.58
71299;BME280;59083;47.974;21.722;2023-02-11T03:17:22;102411.84;;;-4.35;89.57
71299;BME280;59083;47.974;21.722;2023-02-11T03:20:26;102411.06;;;-4.38;89.71
71299;BME280;59083;47.974;21.722;2023-02-11T03:23:41;102416.28;;;-4.38;89.97
71299;BME280;59083;47.974;21.722;2023-02-11T03:26:56;102411.00;;;-4.35;89.83
71299;BME280;59083;47.974;21.722;2023-02-11T03:30:02;102413.56;;;-4.34;89.71
71299;BME280;59083;47.974;21.722;2023-02-11T03:33:13;102413.66;;;-4.38;89.52
71299;BME280;59083;47.974;21.722;2023-02-11T03:36:35;102413.88;;;-4.44;89.62
71299;BME280;59083;47.974;21.722;2023-02-11T03:39:46;102397.50;;;-4.49;89.64
71299;BME280;59083;47.974;21.722;2023-02-11T03:42:57;102392.31;;;-4.49;89.73
71299;BME280;59083;47.974;21.722;2023-02-11T03:46:00;102380.13;;;-4.47;89.82
71299;BME280;59083;47.974;21.722;2023-02-11T03:49:08;102379.44;;;-4.54;89.94
71299;BME280;59083;47.974;21.722;2023-02-11T03:52:13;102366.28;;;-4.49;90.04
71299;BME280;59083;47.974;21.722;2023-02-11T03:55:18;102360.25;;;-4.50;89.97
71299;BME280;59083;47.974;21.722;2023-02-11T03:58:19;102355.06;;;-4.50;89.77
71299;BME280;59083;47.974;21.722;2023-02-11T04:01:21;102343.88;;;-4.53;90.11
71299;BME280;59083;47.974;21.722;2023-02-11T04:04:22;102348.34;;;-4.59;90.29
71299;BME280;59083;47.974;21.722;2023-02-11T04:07:23;102343.16;;;-4.59;90.11
71299;BME280;59083;47.974;21.722;2023-02-11T04:10:25;102332.56;;;-4.52;90.12
71299;BME280;59083;47.974;21.722;2023-02-11T04:13:26;102323.09;;;-4.55;90.03
71299;BME280;59083;47.974;21.722;2023-02-11T04:16:27;102314.53;;;-4.59;90.32
71299;BME280;59083;47.974;21.722;2023-02-11T04:19:30;102298.03;;;-4.57;90.25
71299;BME280;59083;47.974;21.722;2023-02-11T04:22:32;102298.03;;;-4.57;90.28
71299;BME280;59083;47.974;21.722;2023-02-11T04:25:33;102300.81;;;-4.64;90.23
71299;BME280;59083;47.974;21.722;2023-02-11T04:28:34;102301.00;;;-4.70;90.42
71299;BME280;59083;47.974;21.722;2023-02-11T04:31:36;102312.94;;;-4.63;90.14
71299;BME280;59083;47.974;21.722;2023-02-11T04:34:37;102316.41;;;-4.64;90.06
71299;BME280;59083;47.974;21.722;2023-02-11T04:37:38;102301.63;;;-4.62;89.92
71299;BME280;59083;47.974;21.722;2023-02-11T04:40:40;102299.09;;;-4.65;89.95
71299;BME280;59083;47.974;21.722;2023-02-11T04:43:41;102294.06;;;-4.71;90.14
71299;BME280;59083;47.974;21.722;2023-02-11T04:46:42;102295.78;;;-4.70;90.06
71299;BME280;59083;47.974;21.722;2023-02-11T04:49:43;102299.28;;;-4.71;90.07
71299;BME280;59083;47.974;21.722;2023-02-11T04:52:45;102294.91;;;-4.69;90.01
71299;BME280;59083;47.974;21.722;2023-02-11T04:55:49;102307.06;;;-4.71;89.87
71299;BME280;59083;47.974;21.722;2023-02-11T04:58:51;102314.19;;;-4.77;89.84
71299;BME280;59083;47.974;21.722;2023-02-11T05:01:52;102311.56;;;-4.76;89.89
71299;BME280;59083;47.974;21.722;2023-02-11T05:04:53;102319.19;;;-4.70;89.82
71299;BME280;59083;47.974;21.722;2023-02-11T05:07:54;102328.78;;;-4.72;89.78
71299;BME280;59083;47.974;21.722;2023-02-11T05:10:56;102334.13;;;-4.78;89.59
71299;BME280;59083;47.974;21.722;2023-02-11T05:13:57;102331.50;;;-4.76;89.69
71299;BME280;59083;47.974;21.722;2023-02-11T05:16:58;102335.09;;;-4.80;89.84
71299;BME280;59083;47.974;21.722;2023-02-11T05:19:59;102336.72;;;-4.78;89.75
71299;BME280;59083;47.974;21.722;2023-02-11T05:23:01;102338.56;;;-4.81;89.81
71299;BME280;59083;47.974;21.722;2023-02-11T05:26:02;102345.50;;;-4.80;89.71
71299;BME280;59083;47.974;21.722;2023-02-11T05:29:04;102345.50;;;-4.80;89.80
71299;BME280;59083;47.974;21.722;2023-02-11T05:32:05;102345.53;;;-4.82;89.72
71299;BME280;59083;47.974;21.722;2023-02-11T05:35:08;102344.69;;;-4.84;89.75
71299;BME280;59083;47.974;21.722;2023-02-11T05:38:10;102343.81;;;-4.83;89.69
71299;BME280;59083;47.974;21.722;2023-02-11T05:41:11;102341.16;;;-4.80;89.67
71299;BME280;59083;47.974;21.722;2023-02-11T05:44:12;102346.34;;;-4.80;89.74
71299;BME280;59083;47.974;21.722;2023-02-11T05:47:14;102342.03;;;-4.81;89.66
71299;BME280;59083;47.974;21.722;2023-02-11T05:50:15;102335.00;;;-4.77;89.74
71299;BME280;59083;47.974;21.722;2023-02-11T05:53:16;102333.34;;;-4.80;89.61
71299;BME280;59083;47.974;21.722;2023-02-11T05:56:17;102328.03;;;-4.77;89.52
71299;BME280;59083;47.974;21.722;2023-02-11T05:59:19;102313.34;;;-4.78;89.35
71299;BME280;59083;47.974;21.722;2023-02-11T06:02:20;102321.97;;;-4.76;89.33
71299;BME280;59083;47.974;21.722;2023-02-11T06:05:21;102313.22;;;-4.73;89.24
71299;BME280;59083;47.974;21.722;2023-02-11T06:08:22;102320.03;;;-4.69;89.05
71299;BME280;59083;47.974;21.722;2023-02-11T06:11:24;102303.50;;;-4.67;88.95
71299;BME280;59083;47.974;21.722;2023-02-11T06:14:25;102296.53;;;-4.66;88.88
71299;BME280;59083;47.974;21.722;2023-02-11T06:17:26;102295.44;;;-4.57;88.67
71299;BME280;59083;47.974;21.722;2023-02-11T06:20:31;102302.28;;;-4.55;88.10
71299;BME280;59083;47.974;21.722;2023-02-11T06:23:32;102293.47;;;-4.49;87.71
71299;BME280;59083;47.974;21.722;2023-02-11T06:26:33;102291.50;;;-4.41;87.63
71299;BME280;59083;47.974;21.722;2023-02-11T06:29:35;102297.28;;;-4.32;86.86
71299;BME280;59083;47.974;21.722;2023-02-11T06:32:36;102289.06;;;-4.18;86.41
71299;BME280;59083;47.974;21.722;2023-02-11T06:35:38;102280.63;;;-3.98;86.14
71299;BME280;59083;47.974;21.722;2023-02-11T06:38:39;102277.41;;;-3.79;84.85
71299;BME280;59083;47.974;21.722;2023-02-11T06:41:40;102284.31;;;-3.51;83.73
71299;BME280;59083;47.974;21.722;2023-02-11T06:44:41;102270.87;;;-3.39;82.35
71299;BME280;59083;47.974;21.722;2023-02-11T06:47:43;102283.94;;;-3.14;81.51
71299;BME280;59083;47.974;21.722;2023-02-11T06:50:44;102284.72;;;-3.12;80.69
71299;BME280;59083;47.974;21.722;2023-02-11T06:53:46;102282.22;;;-3.15;80.50
71299;BME280;59083;47.974;21.722;2023-02-11T06:56:47;102264.94;;;-3.18;80.79
71299;BME280;59083;47.974;21.722;2023-02-11T06:59:48;102259.94;;;-2.99;81.57
71299;BME280;59083;47.974;21.722;2023-02-11T07:02:49;102250.00;;;-2.89;80.94
71299;BME280;59083;47.974;21.722;2023-02-11T07:05:50;102253.28;;;-2.84;79.71
71299;BME280;59083;47.974;21.722;2023-02-11T07:08:52;102249.91;;;-2.86;80.10
71299;BME280;59083;47.974;21.722;2023-02-11T07:11:53;102250.00;;;-2.89;80.07
71299;BME280;59083;47.974;21.722;2023-02-11T07:14:55;102242.16;;;-3.13;80.69
71299;BME280;59083;47.974;21.722;2023-02-11T07:17:56;102224.19;;;-3.20;81.13
71299;BME280;59083;47.974;21.722;2023-02-11T07:20:57;102233.37;;;-3.35;81.14
71299;BME280;59083;47.974;21.722;2023-02-11T07:23:59;102230.25;;;-3.20;81.31
71299;BME280;59083;47.974;21.722;2023-02-11T07:27:00;102221.06;;;-3.07;81.05
71299;BME280;59083;47.974;21.722;2023-02-11T07:30:02;102217.03;;;-2.90;80.57
71299;BME280;59083;47.974;21.722;2023-02-11T07:33:03;102221.91;;;-2.81;80.65
71299;BME280;59083;47.974;21.722;2023-02-11T07:36:06;102212.59;;;-2.65;79.94
71299;BME280;59083;47.974;21.722;2023-02-11T07:39:08;102231.72;;;-2.43;79.84
71299;BME280;59083;47.974;21.722;2023-02-11T07:42:09;102221.38;;;-2.23;79.18
71299;BME280;59083;47.974;21.722;2023-02-11T07:45:10;102226.84;;;-2.07;78.37
71299;BME280;59083;47.974;21.722;2023-02-11T07:48:12;102224.41;;;-1.90;78.16
71299;BME280;59083;47.974;21.722;2023-02-11T07:51:16;102216.22;;;-1.82;77.44
71299;BME280;59083;47.974;21.722;2023-02-11T07:54:18;102226.31;;;-1.73;77.76
71299;BME280;59083;47.974;21.722;2023-02-11T07:57:19;102240.28;;;-1.74;77.61
71299;BME280;59083;47.974;21.722;2023-02-11T08:00:20;102251.59;;;-1.74;77.35
71299;BME280;59083;47.974;21.722;2023-02-11T08:03:22;102254.59;;;-1.83;77.85
71299;BME280;59083;47.974;21.722;2023-02-11T08:06:25;102241.78;;;-1.89;77.94
71299;BME280;59083;47.974;21.722;2023-02-11T08:09:26;102244.44;;;-1.90;78.10
71299;BME280;59083;47.974;21.722;2023-02-11T08:12:28;102270.44;;;-1.87;78.51
71299;BME280;59083;47.974;21.722;2023-02-11T08:15:29;102266.66;;;-1.80;78.71
71299;BME280;59083;47.974;21.722;2023-02-11T08:18:30;102241.62;;;-1.64;78.29
71299;BME280;59083;47.974;21.722;2023-02-11T08:21:32;102233.53;;;-1.58;78.00
71299;BME280;59083;47.974;21.722;2023-02-11T08:24:33;102259.84;;;-1.62;77.89
71299;BME280;59083;47.974;21.722;2023-02-11T08:27:35;102271.16;;;-1.62;78.46
71299;BME280;59083;47.974;21.722;2023-02-11T08:30:36;102273.59;;;-1.79;78.89
71299;BME280;59083;47.974;21.722;2023-02-11T08:33:38;102285.56;;;-1.74;79.05
71299;BME280;59083;47.974;21.722;2023-02-11T08:36:41;102281.16;;;-1.72;79.24
71299;BME280;59083;47.974;21.722;2023-02-11T08:39:42;102260.44;;;-1.56;78.70
71299;BME280;59083;47.974;21.722;2023-02-11T08:42:44;102264.66;;;-1.32;77.72
71299;BME280;59083;47.974;21.722;2023-02-11T08:45:45;102270.66;;;-1.09;77.43
71299;BME280;59083;47.974;21.722;2023-02-11T08:48:46;102267.41;;;-1.14;76.46
71299;BME280;59083;47.974;21.722;2023-02-11T08:51:49;102251.31;;;-1.05;76.39
71299;BME280;59083;47.974;21.722;2023-02-11T08:54:50;102241.84;;;-0.89;75.97
71299;BME280;59083;47.974;21.722;2023-02-11T08:57:52;102229.00;;;-0.56;75.70
71299;BME280;59083;47.974;21.722;2023-02-11T09:00:53;102232.41;;;-0.35;75.29
71299;BME280;59083;47.974;21.722;2023-02-11T09:03:55;102221.31;;;-0.40;74.66
71299;BME280;59083;47.974;21.722;2023-02-11T09:06:56;102217.28;;;-0.29;74.27
71299;BME280;59083;47.974;21.722;2023-02-11T09:09:58;102211.12;;;-0.47;75.43
71299;BME280;59083;47.974;21.722;2023-02-11T09:12:59;102216.72;;;-0.54;75.68
71299;BME280;59083;47.974;21.722;2023-02-11T09:16:01;102209.47;;;-0.68;76.03
71299;BME280;59083;47.974;21.722;2023-02-11T09:19:03;102222.16;;;-0.59;76.13
71299;BME280;59083;47.974;21.722;2023-02-11T09:22:05;102211.31;;;-0.51;76.35
71299;BME280;59083;47.974;21.722;2023-02-11T09:25:06;102214.59;;;-0.46;75.98
71299;BME280;59083;47.974;21.722;2023-02-11T09:28:08;102206.91;;;-0.32;76.19
71299;BME280;59083;47.974;21.722;2023-02-11T09:31:12;102209.19;;;-0.24;75.51
71299;BME280;59083;47.974;21.722;2023-02-11T09:34:14;102197.34;;;-0.14;75.80
71299;BME280;59083;47.974;21.722;2023-02-11T09:37:15;102204.94;;;0.09;75.39
71299;BME280;59083;47.974;21.722;2023-02-11T09:40:17;102206.34;;;0.33;74.58
71299;BME280;59083;47.974;21.722;2023-02-11T09:43:31;102204.06;;;0.09;75.28
71299;BME280;59083;47.974;21.722;2023-02-11T09:46:40;102200.16;;;0.52;74.23
71299;BME280;59083;47.974;21.722;2023-02-11T09:49:48;102186.97;;;0.53;73.63
71299;BME280;59083;47.974;21.722;2023-02-11T09:55:58;102179.03;;;0.55;73.53
71299;BME280;59083;47.974;21.722;2023-02-11T09:59:00;102177.69;;;0.63;73.65
71299;BME280;59083;47.974;21.722;2023-02-11T10:02:16;102181.44;;;0.75;72.47
71299;BME280;59083;47.974;21.722;2023-02-11T10:09:00;102174.38;;;0.93;72.92
71299;BME280;59083;47.974;21.722;2023-02-11T10:15:40;102169.84;;;0.96;72.35
71299;BME280;59083;47.974;21.722;2023-02-11T10:22:16;102161.78;;;0.99;71.62
71299;BME280;59083;47.974;21.722;2023-02-11T10:28:30;102146.62;;;1.04;72.15
71299;BME280;59083;47.974;21.722;2023-02-11T10:31:41;102150.69;;;0.94;72.01
71299;BME280;59083;47.974;21.722;2023-02-11T10:34:44;102142.16;;;1.06;71.95
71299;BME280;59083;47.974;21.722;2023-02-11T10:37:46;102139.53;;;1.06;71.59
71299;BME280;59083;47.974;21.722;2023-02-11T10:40:47;102126.31;;;0.92;72.39
71299;BME280;59083;47.974;21.722;2023-02-11T10:43:49;102123.09;;;0.87;72.30
71299;BME280;59083;47.974;21.722;2023-02-11T10:46:51;102112.25;;;0.93;72.92
71299;BME280;59083;47.974;21.722;2023-02-11T10:49:52;102101.53;;;1.13;72.83
71299;BME280;59083;47.974;21.722;2023-02-11T10:53:11;102102.44;;;1.28;72.79
71299;BME280;59083;47.974;21.722;2023-02-11T10:56:23;102094.66;;;1.27;72.33
71299;BME280;59083;47.974;21.722;2023-02-11T10:59:30;102088.06;;;1.35;72.68
71299;BME280;59083;47.974;21.722;2023-02-11T11:02:35;102089.47;;;1.56;72.01
71299;BME280;59083;47.974;21.722;2023-02-11T11:06:05;102092.38;;;1.82;71.51
71299;BME280;59083;47.974;21.722;2023-02-11T11:09:28;102090.28;;;2.02;71.35
71299;BME280;59083;47.974;21.722;2023-02-11T11:12:46;102085.84;;;2.03;70.82
71299;BME280;59083;47.974;21.722;2023-02-11T11:16:10;102076.00;;;2.06;70.77
71299;BME280;59083;47.974;21.722;2023-02-11T11:19:21;102083.66;;;1.81;71.26
71299;BME280;59083;47.974;21.722;2023-02-11T11:22:22;102084.03;;;1.89;70.96
71299;BME280;59083;47.974;21.722;2023-02-11T11:25:28;102071.47;;;1.94;71.19
71299;BME280;59083;47.974;21.722;2023-02-11T11:28:36;102081.37;;;1.75;71.56
71299;BME280;59083;47.974;21.722;2023-02-11T11:31:58;102077.59;;;1.65;71.93
71299;BME280;59083;47.974;21.722;2023-02-11T11:35:23;102078.06;;;1.42;72.69
71299;BME280;59083;47.974;21.722;2023-02-11T11:38:26;102062.81;;;1.33;73.66
71299;BME280;59083;47.974;21.722;2023-02-11T11:41:32;102063.81;;;1.46;73.31
71299;BME280;59083;47.974;21.722;2023-02-11T11:44:35;102056.34;;;1.38;73.54
71299;BME280;59083;47.974;21.722;2023-02-11T11:51:10;102061.09;;;1.32;74.26
71299;BME280;59083;47.974;21.722;2023-02-11T11:54:12;102034.19;;;1.28;75.19
71299;BME280;59083;47.974;21.722;2023-02-11T11:57:24;102029.09;;;1.41;75.20
71299;BME280;59083;47.974;21.722;2023-02-11T12:00:35;102029.22;;;1.53;75.05
71299;BME280;59083;47.974;21.722;2023-02-11T12:04:17;102019.38;;;1.57;74.90
71299;BME280;59083;47.974;21.722;2023-02-11T12:10:50;102019.94;;;1.48;75.37
71299;BME280;59083;47.974;21.722;2023-02-11T12:14:05;102017.69;;;1.56;75.44
71299;BME280;59083;47.974;21.722;2023-02-11T12:27:19;101993.38;;;1.82;74.78
71299;BME280;59083;47.974;21.722;2023-02-11T12:44:23;101941.13;;;1.48;77.83
71299;BME280;59083;47.974;21.722;2023-02-11T12:54:27;101911.87;;;1.68;77.26
71299;BME280;59083;47.974;21.722;2023-02-11T12:57:31;101909.62;;;1.76;77.08
71299;BME280;59083;47.974;21.722;2023-02-11T13:00:40;101909.28;;;1.82;76.59
71299;BME280;59083;47.974;21.722;2023-02-11T13:03:49;101897.06;;;1.81;76.60
71299;BME280;59083;47.974;21.722;2023-02-11T13:06:57;101884.66;;;1.83;76.49
71299;BME280;59083;47.974;21.722;2023-02-11T13:10:15;101888.25;;;1.82;76.42
71299;BME280;59083;47.974;21.722;2023-02-11T13:13:26;101907.56;;;1.81;76.69
71299;BME280;59083;47.974;21.722;2023-02-11T13:19:42;101914.13;;;1.88;76.34
71299;BME280;59083;47.974;21.722;2023-02-11T13:22:54;101896.28;;;1.79;76.89
71299;BME280;59083;47.974;21.722;2023-02-11T13:29:28;101896.19;;;1.95;76.39
71299;BME280;59083;47.974;21.722;2023-02-11T13:38:58;101893.88;;;2.04;75.89
71299;BME280;59083;47.974;21.722;2023-02-11T13:42:02;101878.63;;;1.95;76.11
71299;BME280;59083;47.974;21.722;2023-02-11T13:45:16;101856.00;;;2.07;75.86
71299;BME280;59083;47.974;21.722;2023-02-11T13:48:22;101842.94;;;2.05;76.00
71299;BME280;59083;47.974;21.722;2023-02-11T13:51:34;101831.19;;;2.11;75.71
71299;BME280;59083;47.974;21.722;2023-02-11T13:54:38;101832.88;;;2.12;75.69
71299;BME280;59083;47.974;21.722;2023-02-11T13:57:40;101840.69;;;2.14;75.85
71299;BME280;59083;47.974;21.722;2023-02-11T14:00:48;101847.66;;;2.15;75.67
71299;BME280;59083;47.974;21.722;2023-02-11T14:04:19;101848.03;;;2.08;75.95
71299;BME280;59083;47.974;21.722;2023-02-11T14:14:33;101820.97;;;2.21;75.57
71299;BME280;59083;47.974;21.722;2023-02-11T14:17:54;101833.03;;;2.23;75.43
71299;BME280;59083;47.974;21.722;2023-02-11T14:21:09;101826.84;;;2.24;75.56
71299;BME280;59083;47.974;21.722;2023-02-11T14:27:28;101828.59;;;2.38;75.56
71299;BME280;59083;47.974;21.722;2023-02-11T14:33:56;101835.75;;;2.36;75.40
71299;BME280;59083;47.974;21.722;2023-02-11T14:40:37;101836.22;;;2.28;75.42
71299;BME280;59083;47.974;21.722;2023-02-11T14:43:43;101833.59;;;2.28;75.52
71299;BME280;59083;47.974;21.722;2023-02-11T14:46:49;101837.81;;;2.31;75.46
71299;BME280;59083;47.974;21.722;2023-02-11T14:49:52;101836.97;;;2.30;75.54
71299;BME280;59083;47.974;21.722;2023-02-11T14:52:54;101849.59;;;2.25;75.50
71299;BME280;59083;47.974;21.722;2023-02-11T14:55:56;101838.22;;;2.25;75.63
71299;BME280;59083;47.974;21.722;2023-02-11T14:58:57;101846.19;;;2.23;75.75
71299;BME280;59083;47.974;21.722;2023-02-11T15:01:59;101836.53;;;2.24;75.86
71299;BME280;59083;47.974;21.722;2023-02-11T15:05:32;101814.62;;;2.23;75.99
71299;BME280;59083;47.974;21.722;2023-02-11T15:08:36;101800.38;;;2.27;75.94
71299;BME280;59083;47.974;21.722;2023-02-11T15:11:40;101789.41;;;2.21;76.29
71299;BME280;59083;47.974;21.722;2023-02-11T15:14:45;101806.22;;;2.18;76.29
71299;BME280;59083;47.974;21.722;2023-02-11T15:17:48;101804.34;;;2.20;76.27
71299;BME280;59083;47.974;21.722;2023-02-11T15:20:50;101802.72;;;2.18;76.48
71299;BME280;59083;47.974;21.722;2023-02-11T15:24:03;101793.56;;;2.11;76.60
71299;BME280;59083;47.974;21.722;2023-02-11T15:33:23;101775.56;;;2.04;77.08
71299;BME280;59083;47.974;21.722;2023-02-11T15:36:29;101767.84;;;2.01;77.36
71299;BME280;59083;47.974;21.722;2023-02-11T15:39:36;101768.63;;;2.03;77.36
71299;BME280;59083;47.974;21.722;2023-02-11T15:42:38;101752.94;;;2.02;77.39
71299;BME280;59083;47.974;21.722;2023-02-11T15:45:42;101748.69;;;1.99;77.48
71299;BME280;59083;47.974;21.722;2023-02-11T15:48:47;101735.56;;;1.99;77.52
71299;BME280;59083;47.974;21.722;2023-02-11T15:51:51;101726.72;;;2.00;77.47
71299;BME280;59083;47.974;21.722;2023-02-11T15:54:57;101722.63;;;1.96;77.44
71299;BME280;59083;47.974;21.722;2023-02-11T15:58:01;101716.59;;;1.94;77.52
71299;BME280;59083;47.974;21.722;2023-02-11T16:01:03;101722.16;;;1.90;77.60
71299;BME280;59083;47.974;21.722;2023-02-11T16:04:04;101737.09;;;1.89;77.91
71299;BME280;59083;47.974;21.722;2023-02-11T16:07:35;101746.13;;;1.85;77.86
71299;BME280;59083;47.974;21.722;2023-02-11T16:10:32;101746.50;;;1.79;78.20
71299;BME280;59083;47.974;21.722;2023-02-11T16:13:46;101753.62;;;1.77;78.29
71299;BME280;59083;47.974;21.722;2023-02-11T16:16:49;101760.50;;;1.65;78.67
71299;BME280;59083;47.974;21.722;2023-02-11T16:19:52;101753.97;;;1.58;79.02
71299;BME280;59083;47.974;21.722;2023-02-11T16:22:54;101755.19;;;1.53;79.05
71299;BME280;59083;47.974;21.722;2023-02-11T16:26:23;101750.12;;;1.50;79.17
71299;BME280;59083;47.974;21.722;2023-02-11T16:29:31;101741.53;;;1.48;79.47
71299;BME280;59083;47.974;21.722;2023-02-11T16:32:33;101741.69;;;1.45;79.51
71299;BME280;59083;47.974;21.722;2023-02-11T16:35:34;101724.25;;;1.44;79.72
71299;BME280;59083;47.974;21.722;2023-02-11T16:38:37;101727.25;;;1.38;79.81
71299;BME280;59083;47.974;21.722;2023-02-11T16:41:38;101727.81;;;1.43;79.69
71299;BME280;59083;47.974;21.722;2023-02-11T16:44:40;101733.47;;;1.37;79.83
71299;BME280;59083;47.974;21.722;2023-02-11T16:47:41;101706.75;;;1.30;80.56
71299;BME280;59083;47.974;21.722;2023-02-11T16:50:46;101730.62;;;1.25;81.03
71299;BME280;59083;47.974;21.722;2023-02-11T16:53:48;101737.19;;;1.33;80.81
71299;BME280;59083;47.974;21.722;2023-02-11T16:56:49;101750.72;;;1.41;80.44
71299;BME280;59083;47.974;21.722;2023-02-11T16:59:51;101769.66;;;1.46;80.31
71299;BME280;59083;47.974;21.722;2023-02-11T17:02:52;101765.87;;;1.50;80.07
71299;BME280;59083;47.974;21.722;2023-02-11T17:05:53;101765.03;;;1.49;80.09
71299;BME280;59083;47.974;21.722;2023-02-11T17:08:54;101764.31;;;1.47;80.51
71299;BME280;59083;47.974;21.722;2023-02-11T17:11:56;101742.34;;;1.48;80.34
71299;BME280;59083;47.974;21.722;2023-02-11T17:14:57;101736.06;;;1.51;80.12
71299;BME280;59083;47.974;21.722;2023-02-11T17:17:58;101733.53;;;1.49;80.27
71299;BME280;59083;47.974;21.722;2023-02-11T17:20:59;101732.66;;;1.49;80.20
71299;BME280;59083;47.974;21.722;2023-02-11T17:24:01;101732.25;;;1.42;80.79
71299;BME280;59083;47.974;21.722;2023-02-11T17:27:02;101729.88;;;1.38;80.75
71299;BME280;59083;47.974;21.722;2023-02-11T17:30:04;101744.50;;;1.28;81.25
71299;BME280;59083;47.974;21.722;2023-02-11T17:33:05;101734.59;;;1.18;81.25
71299;BME280;59083;47.974;21.722;2023-02-11T17:36:08;101716.13;;;1.06;81.91
71299;BME280;59083;47.974;21.722;2023-02-11T17:39:10;101714.06;;;0.97;82.10
71299;BME280;59083;47.974;21.722;2023-02-11T17:42:11;101695.31;;;0.89;82.62
71299;BME280;59083;47.974;21.722;2023-02-11T17:45:14;101698.84;;;0.88;82.90
71299;BME280;59083;47.974;21.722;2023-02-11T17:48:15;101692.28;;;0.80;82.97
71299;BME280;59083;47.974;21.722;2023-02-11T17:51:24;101679.66;;;0.73;83.58
71299;BME280;59083;47.974;21.722;2023-02-11T17:54:25;101680.59;;;0.72;83.91
71299;BME280;59083;47.974;21.722;2023-02-11T17:57:26;101674.78;;;0.67;84.15